createdAt,value
2018-09-24T08:52:22.851Z,1.10
2018-09-24T08:54:56.587Z,1.00
2018-09-24T08:57:30.307Z,1.20
2018-09-24T09:00:20.664Z,0.90
2018-09-24T09:02:54.584Z,0.70
2018-09-24T09:06:12.839Z,0.90
2018-09-24T09:08:46.410Z,0.77
2018-09-24T09:11:20.112Z,0.87
2018-09-24T09:13:53.889Z,0.90
2018-09-24T09:16:27.812Z,0.83
2018-09-24T09:19:01.583Z,0.90
2018-09-24T09:21:35.251Z,0.80
2018-09-24T09:24:09.092Z,1.00
2018-09-24T09:26:42.760Z,1.67
2018-09-24T09:29:16.512Z,0.90
2018-09-24T09:31:50.271Z,1.30
2018-09-24T09:34:24.179Z,0.93
2018-09-24T09:36:58.027Z,1.40
2018-09-24T09:39:31.692Z,0.97
2018-09-24T09:42:05.415Z,1.70
2018-09-24T09:44:39.189Z,1.20
2018-09-24T09:47:13.149Z,1.17
2018-09-24T09:49:46.972Z,1.00
2018-09-24T09:52:20.751Z,1.00
2018-09-24T09:54:54.416Z,1.23
2018-09-24T09:57:28.220Z,1.00
2018-09-24T10:00:01.883Z,1.30
2018-09-24T10:02:35.736Z,1.03
2018-09-24T10:05:10.548Z,0.80
2018-09-24T10:07:44.136Z,1.10
2018-09-24T10:10:17.840Z,1.37
2018-09-24T10:12:51.600Z,0.90
2018-09-24T10:15:25.584Z,1.00
2018-09-24T10:17:59.242Z,0.80
2018-09-24T10:20:32.916Z,1.10
2018-09-24T10:23:06.536Z,1.20
2018-09-24T10:25:40.401Z,1.67
2018-09-24T10:28:14.243Z,1.00
2018-09-24T10:30:48.027Z,0.80
2018-09-24T10:33:21.816Z,1.10
2018-09-24T10:35:55.670Z,0.90
2018-09-24T10:38:29.360Z,1.00
2018-09-24T10:41:06.300Z,1.17
2018-09-24T10:43:40.083Z,0.90
2018-09-24T10:46:14.356Z,1.17
2018-09-24T10:48:48.187Z,1.60
2018-09-24T10:51:21.967Z,1.60
2018-09-24T10:54:08.176Z,1.00
2018-09-24T10:56:41.904Z,1.10
2018-09-24T10:59:15.671Z,1.10
2018-09-24T11:01:49.486Z,1.00
2018-09-24T11:04:23.229Z,1.20
2018-09-24T11:06:57.064Z,1.00
2018-09-24T11:09:30.698Z,1.60
2018-09-24T11:12:04.464Z,1.17
2018-09-24T11:14:38.099Z,1.00
2018-09-24T11:17:19.819Z,0.90
2018-09-24T11:20:00.050Z,1.10
2018-09-24T11:22:48.011Z,1.67
2018-09-24T11:25:28.136Z,1.17
2018-09-24T11:28:08.997Z,1.30
2018-09-24T11:30:52.948Z,1.10
2018-09-24T11:33:32.771Z,0.80
2018-09-24T11:36:12.915Z,1.63
2018-09-24T11:38:52.201Z,1.10
2018-09-24T11:41:32.011Z,0.80
2018-09-24T11:44:05.865Z,1.23
2018-09-24T11:46:39.864Z,1.30
2018-09-24T11:49:13.616Z,0.97
2018-09-24T11:51:47.307Z,1.27
2018-09-24T11:54:21.129Z,1.00
2018-09-24T11:56:54.760Z,1.10
2018-09-24T11:59:28.761Z,1.10
2018-09-24T12:02:02.523Z,1.43
2018-09-24T12:04:36.355Z,1.40
2018-09-24T12:07:10.475Z,1.10
2018-09-24T12:09:44.231Z,0.87
2018-09-24T12:12:18.508Z,1.17
2018-09-24T12:14:52.175Z,1.10
2018-09-24T12:17:25.785Z,0.70
2018-09-24T12:19:59.489Z,1.20
2018-09-24T12:22:33.163Z,0.73
2018-09-24T12:25:06.876Z,0.97
2018-09-24T12:27:40.732Z,0.90
2018-09-24T12:30:14.604Z,1.20
2018-09-24T12:32:48.385Z,1.20
2018-09-24T12:35:22.227Z,1.10
2018-09-24T12:37:55.916Z,1.33
2018-09-24T12:40:29.548Z,1.10
2018-09-24T12:43:03.174Z,0.80
2018-09-24T12:45:36.978Z,0.90
2018-09-24T12:48:10.656Z,0.90
2018-09-24T12:50:44.361Z,1.03
2018-09-24T12:53:18.174Z,0.87
2018-09-24T12:55:51.748Z,1.30
2018-09-24T12:58:25.477Z,1.20
2018-09-24T13:00:59.225Z,1.33
2018-09-24T13:03:32.801Z,1.10
2018-09-24T13:06:06.652Z,0.90
2018-09-24T13:17:25.248Z,0.70
2018-09-24T13:19:58.993Z,1.30
2018-09-24T13:22:32.900Z,0.90
2018-09-24T13:25:06.603Z,0.90
2018-09-24T13:27:40.280Z,0.90
2018-09-24T13:30:14.135Z,0.83
2018-09-24T13:32:47.933Z,0.90
2018-09-24T13:35:21.719Z,1.00
2018-09-24T13:37:55.540Z,1.97
2018-09-24T13:40:29.280Z,1.40
2018-09-24T13:43:03.110Z,0.90
2018-09-24T13:45:36.818Z,1.07
2018-09-24T13:48:10.808Z,1.00
2018-09-24T13:50:44.695Z,1.10
2018-09-24T13:53:18.382Z,0.90
2018-09-24T13:55:52.042Z,1.03
2018-09-24T13:58:25.639Z,1.03
2018-09-24T14:00:59.674Z,0.90
2018-09-24T14:03:33.333Z,0.77
2018-09-24T14:06:07.002Z,1.77
2018-09-24T14:08:40.866Z,1.10
2018-09-24T14:11:14.737Z,1.10
2018-09-24T14:13:48.442Z,1.20
2018-09-24T14:16:22.257Z,1.67
2018-09-24T14:18:56.060Z,1.07
2018-09-24T14:21:29.708Z,1.07
2018-09-24T14:24:04.122Z,1.20
2018-09-24T14:26:38.356Z,1.17
2018-09-24T14:29:12.756Z,1.10
2018-09-24T14:31:47.095Z,0.80
2018-09-24T14:34:20.723Z,0.90
2018-09-24T14:36:54.524Z,0.90
2018-09-24T14:39:28.246Z,0.93
2018-09-24T14:42:02.103Z,0.87
2018-09-24T14:44:35.706Z,0.83
2018-09-24T14:47:09.486Z,0.60
2018-09-24T14:49:43.251Z,0.80
2018-09-24T14:52:17.112Z,1.20
2018-09-24T14:54:50.872Z,0.80
2018-09-24T14:57:24.941Z,0.90
2018-09-24T14:59:58.774Z,0.80
2018-09-24T15:02:32.478Z,1.03
2018-09-24T15:05:06.336Z,1.03
2018-09-24T15:07:40.062Z,1.00
2018-09-24T15:10:13.783Z,1.20
2018-09-24T15:12:47.433Z,0.80
2018-09-24T15:15:21.011Z,0.80
2018-09-24T15:17:54.859Z,1.13
2018-09-24T15:20:28.723Z,0.87
2018-09-24T15:23:02.395Z,0.90
2018-09-24T15:25:36.272Z,1.17
2018-09-24T15:28:10.112Z,0.90
2018-09-24T15:30:44.521Z,0.90
2018-09-24T15:33:18.242Z,1.00
2018-09-24T15:35:51.851Z,0.87
2018-09-24T15:38:25.552Z,1.07
2018-09-24T15:40:59.204Z,0.87
2018-09-24T15:43:32.845Z,1.00
2018-09-24T15:46:06.705Z,1.00
2018-09-24T15:48:40.435Z,1.20
2018-09-24T15:51:14.278Z,1.33
2018-09-24T15:53:48.161Z,1.23
2018-09-24T15:56:21.920Z,0.80
2018-09-24T15:58:55.675Z,0.90
2018-09-24T16:01:29.351Z,0.90
2018-09-24T16:04:03.041Z,1.37
2018-09-24T16:06:36.780Z,0.83
2018-09-24T16:09:13.564Z,1.27
2018-09-24T16:11:47.429Z,0.83
2018-09-24T16:14:21.423Z,1.00
2018-09-24T16:16:55.116Z,0.80
2018-09-24T16:59:04.921Z,0.80
2018-09-24T17:01:38.565Z,0.83
2018-09-24T17:04:12.468Z,0.90
2018-09-24T17:06:46.164Z,0.97
2018-09-24T17:09:19.851Z,0.97
2018-09-24T17:11:53.715Z,1.17
2018-09-24T17:14:27.309Z,1.20
2018-09-24T17:17:01.147Z,1.10
2018-09-24T17:19:35.027Z,1.70
2018-09-24T17:22:08.777Z,1.40
2018-09-24T17:24:42.463Z,1.10
2018-09-24T17:27:16.234Z,1.07
2018-09-24T17:29:49.927Z,1.40
2018-09-24T17:32:23.767Z,0.97
2018-09-24T17:34:57.642Z,1.10
2018-09-24T17:37:31.430Z,1.00
2018-09-24T17:40:05.310Z,1.43
2018-09-24T17:42:38.987Z,0.90
2018-09-24T17:45:12.738Z,1.07
2018-09-24T17:47:46.475Z,1.10
2018-09-24T17:50:20.281Z,1.10
2018-09-24T17:52:54.143Z,1.10
2018-09-24T17:55:28.025Z,1.00
2018-09-24T17:58:01.848Z,1.53
2018-09-24T18:00:35.636Z,1.20
2018-09-24T18:03:09.407Z,1.23
2018-09-24T18:05:43.191Z,1.10
2018-09-24T18:11:06.983Z,0.97
2018-09-24T18:13:40.663Z,1.20
2018-09-24T18:16:14.444Z,1.50
2018-09-24T18:27:19.040Z,2.03
2018-09-24T18:29:52.737Z,1.83
2018-09-24T18:32:26.340Z,1.70
2018-09-24T18:35:00.013Z,1.83
2018-09-24T18:37:33.776Z,1.40
2018-09-24T18:40:07.570Z,1.53
2018-09-24T18:42:42.802Z,1.43
2018-09-24T18:45:16.487Z,1.10
2018-09-24T18:47:50.505Z,1.40
2018-09-24T18:50:24.646Z,1.53
2018-09-24T18:52:58.291Z,1.20
2018-09-24T18:55:31.979Z,1.70
2018-09-24T18:58:05.585Z,1.60
2018-09-24T19:00:39.370Z,1.23
2018-09-24T19:03:13.268Z,1.33
2018-09-24T19:05:46.988Z,1.43
2018-09-24T19:08:20.712Z,1.50
2018-09-24T19:10:54.324Z,1.50
2018-09-24T19:13:28.257Z,2.03
2018-09-24T19:16:02.048Z,1.93
2018-09-24T19:18:35.819Z,0.97
2018-09-24T19:21:09.741Z,1.30
2018-09-24T19:23:43.587Z,1.50
2018-09-24T19:26:17.496Z,1.40
2018-09-24T19:28:51.324Z,1.70
2018-09-24T19:31:25.184Z,1.60
2018-09-24T19:33:58.968Z,1.50
2018-09-24T19:36:32.724Z,1.40
2018-09-24T19:39:06.566Z,1.07
2018-09-24T19:41:40.693Z,1.17
2018-09-24T19:44:14.765Z,1.37
2018-09-24T19:46:48.387Z,1.67
2018-09-24T19:49:22.047Z,1.77
2018-09-24T19:51:55.712Z,1.40
2018-09-24T19:54:29.518Z,1.80
2018-09-24T19:57:03.437Z,1.50
2018-09-24T19:59:37.480Z,1.53
2018-09-24T20:02:11.707Z,1.63
2018-09-24T20:04:45.535Z,1.47
2018-09-24T20:07:19.065Z,2.10
2018-09-24T20:09:52.751Z,1.47
2018-09-24T20:12:26.416Z,1.70
2018-09-24T20:15:00.156Z,1.80
2018-09-24T20:17:33.811Z,1.30
2018-09-24T20:20:07.539Z,1.33
2018-09-24T20:22:41.253Z,1.93
2018-09-24T20:25:15.140Z,1.43
2018-09-24T20:27:49.160Z,1.50
2018-09-24T20:30:23.100Z,1.50
2018-09-24T20:32:56.858Z,1.33
2018-09-24T20:35:30.556Z,1.20
2018-09-24T20:38:04.202Z,1.70
2018-09-24T20:40:37.949Z,1.70
2018-09-24T20:43:11.652Z,1.47
2018-09-24T20:45:45.420Z,1.67
2018-09-24T20:48:19.160Z,1.63
2018-09-24T20:50:52.954Z,1.70
2018-09-24T20:53:26.645Z,1.83
2018-09-24T20:56:00.439Z,1.63
2018-09-24T20:58:34.263Z,1.57
2018-09-24T21:01:07.944Z,1.90
2018-09-24T21:03:41.681Z,1.87
2018-09-24T21:06:15.566Z,2.27
2018-09-24T21:08:49.208Z,2.10
2018-09-24T21:11:23.098Z,1.97
2018-09-24T21:13:57.063Z,1.87
2018-09-24T21:16:31.473Z,2.70
2018-09-24T21:19:05.296Z,1.57
2018-09-24T21:21:38.954Z,2.40
2018-09-24T21:24:13.277Z,1.90
2018-09-24T21:26:47.122Z,2.70
2018-09-24T21:29:20.855Z,2.23
2018-09-24T21:31:54.572Z,1.30
2018-09-24T21:34:28.193Z,2.20
2018-09-24T21:37:01.979Z,2.00
2018-09-24T21:39:35.580Z,2.03
2018-09-24T21:42:09.228Z,1.30
2018-09-24T21:44:43.043Z,1.60
2018-09-24T21:47:16.786Z,2.00
2018-09-24T21:49:50.460Z,1.90
2018-09-24T21:52:24.317Z,1.83
2018-09-24T21:54:57.975Z,1.70
2018-09-24T21:57:31.816Z,1.90
2018-09-24T22:00:05.576Z,1.37
2018-09-24T22:02:39.448Z,2.00
2018-09-24T22:05:13.481Z,3.53
2018-09-24T22:07:47.271Z,3.50
2018-09-24T22:10:20.960Z,2.80
2018-09-24T22:12:54.812Z,3.47
2018-09-24T22:15:28.393Z,2.20
